createdAt,value
2023-05-23T00:01:24.991Z,17.00
2023-05-23T00:03:56.041Z,17.00
2023-05-23T00:06:24.788Z,16.90
2023-05-23T00:08:55.031Z,17.00
2023-05-23T00:11:27.086Z,17.00
2023-05-23T00:13:55.685Z,17.00
2023-05-23T00:16:24.195Z,16.90
2023-05-23T00:18:53.823Z,17.00
2023-05-23T00:21:22.438Z,17.00
2023-05-23T00:23:50.910Z,17.00
2023-05-23T00:26:21.919Z,17.00
2023-05-23T00:28:50.607Z,17.00
2023-05-23T00:31:19.149Z,17.00
2023-05-23T00:33:47.673Z,17.00
2023-05-23T00:36:16.091Z,17.00
2023-05-23T00:38:46.034Z,17.00
2023-05-23T00:41:14.572Z,17.00
2023-05-23T00:43:44.556Z,17.00
2023-05-23T00:46:13.098Z,17.00
2023-05-23T00:48:41.602Z,17.00
2023-05-23T00:51:10.033Z,17.00
2023-05-23T00:53:38.525Z,17.00
2023-05-23T00:56:07.244Z,17.00
2023-05-23T00:58:35.956Z,17.00
2023-05-23T01:01:05.866Z,17.00
2023-05-23T01:03:34.465Z,16.90
2023-05-23T01:06:03.609Z,16.90
2023-05-23T01:08:32.045Z,16.90
2023-05-23T01:11:03.161Z,16.90
2023-05-23T01:13:35.649Z,17.00
2023-05-23T01:16:08.747Z,17.00
2023-05-23T01:18:41.607Z,17.00
2023-05-23T01:21:13.264Z,17.00
2023-05-23T01:24:11.468Z,17.00
2023-05-23T01:26:49.293Z,17.10
2023-05-23T01:29:23.724Z,17.10
2023-05-23T01:31:54.417Z,17.00
2023-05-23T01:34:23.000Z,17.00
2023-05-23T01:36:52.008Z,16.90
2023-05-23T01:39:20.579Z,17.00
2023-05-23T01:41:50.004Z,16.90
2023-05-23T01:44:20.864Z,16.90
2023-05-23T01:46:51.161Z,16.80
2023-05-23T01:49:19.730Z,16.80
2023-05-23T01:51:48.798Z,16.70
2023-05-23T01:54:19.964Z,16.70
2023-05-23T01:56:49.254Z,16.70
2023-05-23T01:59:17.730Z,16.70
2023-05-23T02:01:46.311Z,16.80
2023-05-23T02:04:16.324Z,16.80
2023-05-23T02:06:44.741Z,16.80
2023-05-23T02:09:13.308Z,16.80
2023-05-23T02:11:41.720Z,16.80
2023-05-23T02:14:10.649Z,16.80
2023-05-23T02:16:39.151Z,16.80
2023-05-23T02:19:07.845Z,16.80
2023-05-23T02:21:37.732Z,16.70
2023-05-23T02:24:06.442Z,16.70
2023-05-23T02:26:34.952Z,16.70
2023-05-23T02:29:03.606Z,16.70
2023-05-23T02:31:32.467Z,16.70
2023-05-23T02:34:01.050Z,16.70
2023-05-23T02:36:29.610Z,16.80
2023-05-23T02:38:59.639Z,16.80
2023-05-23T02:41:28.238Z,16.80
2023-05-23T02:43:56.840Z,16.70
2023-05-23T02:46:25.452Z,16.70
2023-05-23T02:48:53.869Z,16.70
2023-05-23T02:51:22.437Z,16.70
2023-05-23T02:53:51.019Z,16.70
2023-05-23T02:56:22.403Z,16.80
2023-05-23T02:58:51.092Z,16.70
2023-05-23T03:01:19.983Z,16.70
2023-05-23T03:03:48.533Z,16.70
2023-05-23T03:06:17.202Z,16.70
2023-05-23T03:08:45.663Z,16.70
2023-05-23T03:11:14.042Z,16.70
2023-05-23T03:13:43.940Z,16.70
2023-05-23T03:16:13.129Z,16.60
2023-05-23T03:18:42.120Z,16.60
2023-05-23T03:21:10.616Z,16.60
2023-05-23T03:23:39.084Z,16.60
2023-05-23T03:26:07.706Z,16.60
2023-05-23T03:28:36.262Z,16.60
2023-05-23T03:31:06.230Z,16.60
2023-05-23T03:33:34.740Z,16.70
2023-05-23T03:36:03.207Z,16.70
2023-05-23T03:38:31.627Z,16.70
2023-05-23T03:41:00.018Z,16.60
2023-05-23T03:43:28.480Z,16.60
2023-05-23T03:45:57.010Z,16.60
2023-05-23T03:48:26.819Z,16.60
2023-05-23T03:50:55.261Z,16.60
2023-05-23T03:53:23.736Z,16.60
2023-05-23T03:55:54.014Z,16.60
2023-05-23T03:58:22.486Z,16.60
2023-05-23T04:00:51.040Z,16.60
2023-05-23T04:03:19.727Z,16.60
2023-05-23T04:05:49.741Z,16.70
2023-05-23T04:08:21.986Z,16.60
2023-05-23T04:10:50.579Z,16.70
2023-05-23T04:13:19.105Z,16.70
2023-05-23T04:15:48.130Z,16.70
2023-05-23T04:18:17.502Z,16.80
2023-05-23T04:20:46.104Z,16.80
2023-05-23T04:23:16.150Z,16.80
2023-05-23T04:25:44.620Z,16.80
2023-05-23T04:28:13.215Z,16.80
2023-05-23T04:30:42.771Z,16.90
2023-05-23T04:33:11.953Z,16.90
2023-05-23T04:35:40.892Z,17.00
2023-05-23T04:38:10.349Z,17.10
2023-05-23T04:40:40.274Z,17.20
2023-05-23T04:43:10.197Z,17.30
2023-05-23T04:45:38.978Z,17.40
2023-05-23T04:48:08.399Z,17.50
2023-05-23T04:50:38.024Z,17.60
2023-05-23T04:53:06.506Z,17.70
2023-05-23T04:55:35.291Z,17.80
2023-05-23T04:58:05.245Z,17.90
2023-05-23T05:00:33.769Z,18.00
2023-05-23T05:03:02.251Z,18.10
2023-05-23T05:05:30.776Z,18.20
2023-05-23T05:07:59.304Z,18.40
2023-05-23T05:10:27.852Z,18.50
2023-05-23T05:12:56.285Z,18.70
2023-05-23T05:15:26.193Z,18.80
2023-05-23T05:17:54.977Z,18.90
2023-05-23T05:20:23.606Z,19.10
2023-05-23T05:22:56.629Z,19.30
2023-05-23T05:25:25.374Z,19.60
2023-05-23T05:27:53.822Z,19.80
2023-05-23T05:30:22.716Z,20.00
2023-05-23T05:32:52.650Z,20.20
2023-05-23T05:35:21.214Z,20.40
2023-05-23T05:37:49.853Z,20.60
2023-05-23T05:40:18.356Z,20.90
2023-05-23T05:42:46.915Z,21.00
2023-05-23T05:45:15.385Z,21.10
2023-05-23T05:47:44.025Z,21.10
2023-05-23T05:50:14.191Z,21.00
2023-05-23T05:52:43.204Z,20.90
2023-05-23T05:55:12.469Z,20.90
2023-05-23T05:57:41.265Z,20.80
2023-05-23T06:00:13.650Z,20.80
2023-05-23T06:02:43.279Z,20.70
2023-05-23T06:05:13.385Z,20.70
2023-05-23T06:07:42.068Z,20.60
2023-05-23T06:10:12.897Z,20.50
2023-05-23T06:12:41.550Z,20.50
2023-05-23T06:15:10.714Z,20.50
2023-05-23T06:17:39.278Z,20.50
2023-05-23T06:20:08.589Z,20.40
2023-05-23T06:22:38.546Z,20.40
2023-05-23T06:25:07.724Z,20.30
2023-05-23T06:27:36.225Z,20.20
2023-05-23T06:30:06.044Z,20.20
2023-05-23T06:32:34.601Z,20.20
2023-05-23T06:35:03.212Z,20.20
2023-05-23T06:37:31.711Z,20.30
2023-05-23T06:40:01.591Z,20.30
2023-05-23T06:42:30.129Z,20.40
2023-05-23T06:44:58.696Z,20.40
2023-05-23T06:47:27.119Z,20.50
2023-05-23T06:49:55.624Z,20.50
2023-05-23T06:52:24.105Z,20.60
2023-05-23T06:54:52.619Z,20.60
2023-05-23T06:57:22.634Z,20.60
2023-05-23T06:59:51.138Z,20.60
2023-05-23T07:02:19.609Z,20.70
2023-05-23T07:04:48.122Z,20.70
2023-05-23T07:07:16.745Z,20.70
2023-05-23T07:09:45.235Z,20.80
2023-05-23T07:12:14.100Z,20.90
2023-05-23T07:14:44.048Z,20.90
2023-05-23T07:17:12.704Z,21.00
2023-05-23T07:19:41.262Z,21.10
2023-05-23T07:22:09.742Z,21.10
2023-05-23T07:24:38.363Z,21.30
2023-05-23T07:27:07.059Z,21.30
2023-05-23T07:29:35.628Z,21.50
2023-05-23T07:32:05.760Z,21.60
2023-05-23T07:34:34.237Z,21.70
2023-05-23T07:37:02.692Z,21.90
2023-05-23T07:39:31.088Z,22.30
2023-05-23T07:41:59.585Z,22.90
2023-05-23T07:44:28.022Z,23.30
2023-05-23T07:46:56.684Z,23.70
2023-05-23T07:49:26.815Z,24.00
2023-05-23T07:51:55.260Z,24.30
2023-05-23T07:54:23.709Z,24.60
2023-05-23T07:56:52.285Z,24.90
2023-05-23T07:59:20.806Z,25.10
2023-05-23T08:01:50.628Z,25.50
2023-05-23T08:04:19.355Z,25.60
2023-05-23T08:07:04.197Z,25.70
2023-05-23T08:09:33.285Z,25.60
2023-05-23T08:12:01.831Z,25.70
2023-05-23T08:14:42.293Z,25.70
2023-05-23T08:17:18.913Z,25.60
2023-05-23T08:19:47.661Z,25.80
2023-05-23T08:22:17.489Z,25.80
2023-05-23T08:24:46.206Z,25.80
2023-05-23T08:27:14.786Z,26.00
2023-05-23T08:29:44.360Z,25.90
2023-05-23T08:32:12.982Z,25.90
2023-05-23T08:34:41.897Z,26.00
2023-05-23T08:37:10.410Z,26.00
2023-05-23T08:39:40.360Z,25.90
2023-05-23T08:42:09.457Z,25.70
2023-05-23T08:44:38.060Z,25.60
2023-05-23T08:47:06.773Z,25.50
2023-05-23T08:49:35.508Z,25.30
2023-05-23T08:52:04.743Z,25.20
2023-05-23T08:54:34.147Z,25.20
2023-05-23T08:57:04.540Z,25.00
2023-05-23T08:59:33.301Z,25.10
2023-05-23T09:02:01.960Z,25.10
2023-05-23T09:04:32.405Z,25.10
2023-05-23T09:07:01.519Z,25.00
2023-05-23T09:09:30.265Z,25.00
2023-05-23T09:11:59.861Z,24.80
2023-05-23T09:14:32.114Z,24.60
2023-05-23T09:17:04.769Z,24.60
2023-05-23T09:19:33.732Z,24.60
2023-05-23T09:22:03.863Z,24.60
2023-05-23T09:24:35.349Z,24.70
2023-05-23T09:27:04.313Z,24.50
2023-05-23T09:29:34.170Z,24.50
2023-05-23T09:32:11.628Z,24.60
2023-05-23T09:34:41.748Z,24.40
2023-05-23T09:37:13.592Z,24.50
2023-05-23T09:39:47.131Z,24.20
2023-05-23T09:42:19.804Z,24.20
2023-05-23T09:44:49.686Z,24.20
2023-05-23T09:47:18.727Z,24.00
2023-05-23T09:49:48.091Z,24.00
2023-05-23T09:52:16.570Z,24.10
2023-05-23T09:54:46.698Z,24.00
2023-05-23T09:57:16.156Z,23.90
2023-05-23T09:59:50.304Z,23.80
2023-05-23T10:02:26.329Z,23.60
2023-05-23T10:04:54.966Z,23.60
2023-05-23T10:07:24.396Z,23.50
2023-05-23T10:09:58.754Z,23.20
2023-05-23T10:12:45.780Z,23.00
2023-05-23T10:15:16.875Z,22.70
2023-05-23T10:17:55.176Z,22.70
2023-05-23T10:20:26.350Z,22.70
2023-05-23T10:22:55.582Z,22.60
2023-05-23T10:25:24.152Z,22.40
2023-05-23T10:27:59.551Z,22.30
2023-05-23T10:30:29.462Z,22.40
2023-05-23T10:33:00.416Z,22.50
2023-05-23T10:35:42.130Z,22.50
2023-05-23T10:38:14.222Z,22.50
2023-05-23T10:40:47.951Z,22.60
2023-05-23T10:43:19.403Z,22.50
2023-05-23T10:45:50.750Z,22.50
2023-05-23T10:48:24.239Z,22.60
2023-05-23T10:51:07.585Z,22.70
2023-05-23T10:53:37.198Z,22.60
2023-05-23T10:56:08.733Z,22.60
2023-05-23T10:58:37.955Z,22.40
2023-05-23T11:01:07.400Z,22.70
2023-05-23T11:03:38.423Z,22.70
2023-05-23T11:06:07.471Z,22.60
2023-05-23T11:08:47.801Z,22.50
2023-05-23T11:11:17.147Z,22.60
2023-05-23T11:14:00.561Z,22.40
2023-05-23T11:16:30.047Z,22.60
2023-05-23T11:19:16.952Z,22.60
2023-05-23T11:21:47.273Z,22.50
2023-05-23T11:24:15.779Z,22.70
2023-05-23T11:26:53.986Z,22.70
2023-05-23T11:29:22.649Z,22.60
2023-05-23T11:31:51.255Z,22.50
2023-05-23T11:34:20.042Z,22.30
2023-05-23T11:36:54.069Z,22.20
2023-05-23T11:39:22.747Z,22.10
2023-05-23T11:42:01.122Z,22.20
2023-05-23T11:44:29.848Z,22.30
2023-05-23T11:47:01.886Z,22.40
2023-05-23T11:49:31.189Z,22.60
2023-05-23T11:52:02.805Z,22.50
2023-05-23T11:54:31.388Z,22.50
2023-05-23T11:57:00.323Z,22.50
2023-05-23T11:59:29.090Z,22.60
2023-05-23T12:01:57.770Z,22.70
2023-05-23T12:04:27.313Z,22.80
2023-05-23T12:06:56.145Z,23.00
2023-05-23T12:09:26.782Z,23.00
2023-05-23T12:11:55.333Z,22.80
2023-05-23T12:14:23.786Z,22.90
2023-05-23T12:16:53.875Z,22.70
2023-05-23T12:19:22.419Z,22.70
2023-05-23T12:21:51.096Z,22.60
2023-05-23T12:24:20.250Z,22.60
2023-05-23T12:26:53.746Z,22.80
2023-05-23T12:29:22.790Z,22.80
2023-05-23T12:31:52.593Z,22.70
2023-05-23T12:34:21.765Z,22.80
2023-05-23T12:36:55.015Z,22.80
2023-05-23T12:39:29.340Z,22.80
2023-05-23T12:42:08.276Z,22.90
2023-05-23T12:44:36.855Z,22.90
2023-05-23T12:47:05.521Z,22.90
2023-05-23T12:49:34.101Z,22.90
2023-05-23T12:52:02.622Z,23.00
2023-05-23T12:54:31.111Z,23.10
2023-05-23T12:57:01.048Z,23.00
2023-05-23T12:59:29.569Z,22.90
2023-05-23T13:01:58.436Z,22.60
2023-05-23T13:04:28.467Z,22.40
2023-05-23T13:06:58.064Z,22.20
2023-05-23T13:09:26.906Z,22.30
2023-05-23T13:11:56.004Z,22.40
2023-05-23T13:14:25.926Z,22.50
2023-05-23T13:16:54.582Z,22.60
2023-05-23T13:19:23.280Z,22.80
2023-05-23T13:21:51.746Z,22.90
2023-05-23T13:24:20.290Z,22.90
2023-05-23T13:26:48.815Z,22.80
2023-05-23T13:29:17.278Z,22.70
2023-05-23T13:31:47.323Z,22.70
2023-05-23T13:34:15.785Z,22.60
2023-05-23T13:36:44.303Z,22.40
2023-05-23T13:39:12.843Z,22.40
2023-05-23T13:41:41.327Z,22.50
2023-05-23T13:44:09.855Z,22.60
2023-05-23T13:46:40.473Z,22.60
2023-05-23T13:49:10.520Z,22.60
2023-05-23T13:51:39.074Z,22.70
2023-05-23T13:54:07.580Z,22.60
2023-05-23T13:56:36.725Z,22.70
2023-05-23T13:59:05.190Z,22.70
2023-05-23T14:01:33.794Z,22.60
2023-05-23T14:04:03.513Z,22.60
2023-05-23T14:06:34.176Z,22.60
2023-05-23T14:09:02.787Z,22.70
2023-05-23T14:11:31.235Z,22.60
2023-05-23T14:13:59.604Z,22.60
2023-05-23T14:16:28.219Z,22.50
2023-05-23T14:18:56.689Z,22.40
2023-05-23T14:21:25.335Z,22.50
2023-05-23T14:23:55.225Z,22.60
2023-05-23T14:26:23.796Z,22.60
2023-05-23T14:28:52.523Z,22.50
2023-05-23T14:31:21.934Z,22.60
2023-05-23T14:33:51.056Z,22.70
2023-05-23T14:36:19.648Z,22.80
2023-05-23T14:38:48.190Z,22.50
2023-05-23T14:41:18.089Z,22.40
2023-05-23T14:43:46.774Z,22.40
2023-05-23T14:46:15.750Z,22.40
2023-05-23T14:48:44.230Z,22.20
2023-05-23T14:51:23.626Z,22.20
2023-05-23T14:53:55.768Z,22.30
2023-05-23T14:56:27.193Z,22.40
2023-05-23T14:58:57.543Z,22.40
2023-05-23T15:01:26.109Z,22.30
2023-05-23T15:03:54.770Z,22.30
2023-05-23T15:06:23.690Z,22.20
2023-05-23T15:08:52.288Z,22.40
2023-05-23T15:11:21.605Z,22.50
2023-05-23T15:13:51.645Z,22.60
2023-05-23T15:16:20.485Z,22.70
2023-05-23T15:18:49.068Z,22.80
2023-05-23T15:21:17.681Z,22.70
2023-05-23T15:23:46.230Z,22.50
2023-05-23T15:26:14.739Z,22.50
2023-05-23T15:28:43.256Z,22.50
2023-05-23T15:31:13.174Z,22.50
2023-05-23T15:33:41.651Z,22.60
2023-05-23T15:36:10.220Z,22.60
2023-05-23T15:38:38.657Z,22.60
2023-05-23T15:41:07.397Z,22.60
2023-05-23T15:43:36.469Z,22.70
2023-05-23T15:46:05.574Z,22.50
2023-05-23T15:48:35.599Z,22.60
2023-05-23T15:51:04.122Z,22.60
2023-05-23T15:53:37.238Z,22.60
2023-05-23T15:56:12.015Z,22.70
2023-05-23T15:58:40.508Z,22.70
2023-05-23T16:01:09.974Z,22.80
2023-05-23T16:03:40.062Z,22.80
2023-05-23T16:06:08.759Z,22.80
2023-05-23T16:08:37.266Z,22.90
2023-05-23T16:11:05.890Z,22.90
2023-05-23T16:13:34.386Z,23.00
2023-05-23T16:16:03.914Z,23.10
2023-05-23T16:18:32.513Z,23.10
2023-05-23T16:21:02.447Z,23.30
2023-05-23T16:23:30.886Z,23.30
2023-05-23T16:25:59.391Z,23.30
2023-05-23T16:28:29.089Z,23.10
2023-05-23T16:30:57.584Z,23.00
2023-05-23T16:33:26.118Z,22.90
2023-05-23T16:35:54.567Z,22.90
2023-05-23T16:38:24.482Z,22.90
2023-05-23T16:40:52.990Z,22.80
2023-05-23T16:43:21.524Z,22.90
2023-05-23T16:45:49.998Z,23.00
2023-05-23T16:48:18.603Z,22.90
2023-05-23T16:50:47.102Z,22.90
2023-05-23T16:53:15.717Z,22.80
2023-05-23T16:55:46.403Z,22.80
2023-05-23T16:58:14.962Z,22.60
2023-05-23T17:00:43.612Z,22.60
2023-05-23T17:03:12.293Z,22.60
2023-05-23T17:05:41.329Z,22.50
2023-05-23T17:08:09.959Z,22.60
2023-05-23T17:10:38.586Z,22.60
2023-05-23T17:13:08.576Z,22.60
2023-05-23T17:15:37.246Z,22.60
2023-05-23T17:18:05.881Z,22.80
2023-05-23T17:20:34.394Z,22.80
2023-05-23T17:23:03.705Z,22.90
2023-05-23T17:25:32.267Z,22.90
2023-05-23T17:28:00.895Z,22.80
2023-05-23T17:30:30.952Z,22.80
2023-05-23T17:32:59.564Z,22.60
2023-05-23T17:35:28.280Z,22.60
2023-05-23T17:37:57.865Z,22.50
2023-05-23T17:40:26.701Z,22.40
2023-05-23T17:42:55.213Z,22.40
2023-05-23T17:45:23.866Z,22.30
2023-05-23T17:47:53.922Z,22.30
2023-05-23T17:50:22.876Z,22.20
2023-05-23T17:52:51.622Z,22.20
2023-05-23T17:55:20.221Z,22.20
2023-05-23T17:57:48.643Z,22.10
2023-05-23T18:00:17.626Z,22.00
2023-05-23T18:02:46.231Z,22.00
2023-05-23T18:05:16.331Z,21.90
2023-05-23T18:07:44.775Z,21.90
2023-05-23T18:10:13.306Z,21.90
2023-05-23T18:12:42.059Z,21.90
2023-05-23T18:15:11.288Z,21.90
2023-05-23T18:17:40.000Z,21.80
2023-05-23T18:20:09.602Z,21.80
2023-05-23T18:22:39.607Z,21.80
2023-05-23T18:25:08.365Z,21.80
2023-05-23T18:27:36.978Z,21.90
2023-05-23T18:30:05.928Z,21.80
2023-05-23T18:32:34.418Z,21.80
2023-05-23T18:35:02.907Z,21.80
2023-05-23T18:37:31.605Z,21.80
2023-05-23T18:40:01.524Z,21.70
2023-05-23T18:42:31.004Z,21.70
2023-05-23T18:44:59.577Z,21.60
2023-05-23T18:47:28.110Z,21.60
2023-05-23T18:49:56.720Z,21.60
2023-05-23T18:52:25.153Z,21.60
2023-05-23T18:54:54.029Z,21.50
2023-05-23T18:57:24.239Z,21.50
2023-05-23T18:59:53.105Z,21.40
2023-05-23T19:02:21.682Z,21.50
2023-05-23T19:04:50.210Z,21.50
2023-05-23T19:07:18.714Z,21.50
2023-05-23T19:09:47.663Z,21.50
2023-05-23T19:12:16.357Z,21.40
2023-05-23T19:14:46.634Z,21.30
2023-05-23T19:17:15.124Z,21.20
2023-05-23T19:19:44.934Z,21.20
2023-05-23T19:22:13.577Z,21.20
2023-05-23T19:24:43.093Z,21.20
2023-05-23T19:27:11.928Z,21.10
2023-05-23T19:29:40.639Z,21.20
2023-05-23T19:32:11.795Z,21.10
2023-05-23T19:34:40.761Z,21.10
2023-05-23T19:37:09.416Z,21.10
2023-05-23T19:39:38.632Z,21.10
2023-05-23T19:42:07.338Z,21.10
2023-05-23T19:44:36.050Z,21.10
2023-05-23T19:47:04.663Z,21.00
2023-05-23T19:49:34.809Z,21.00
2023-05-23T19:52:03.358Z,21.00
2023-05-23T19:54:32.068Z,20.90
2023-05-23T19:57:00.716Z,20.90
2023-05-23T19:59:29.190Z,20.90
2023-05-23T20:01:57.734Z,20.80
2023-05-23T20:04:29.182Z,20.80
2023-05-23T20:07:01.897Z,20.80
2023-05-23T20:09:30.478Z,20.70
2023-05-23T20:12:00.246Z,20.70
2023-05-23T20:14:29.372Z,20.70
2023-05-23T20:16:59.315Z,20.60
2023-05-23T20:19:31.170Z,20.60
2023-05-23T20:22:01.014Z,20.60
2023-05-23T20:24:32.368Z,20.60
2023-05-23T20:27:03.132Z,20.60
2023-05-23T20:29:34.941Z,20.60
2023-05-23T20:32:04.659Z,20.60
2023-05-23T20:34:33.970Z,20.60
2023-05-23T20:37:05.351Z,20.60
2023-05-23T20:39:33.940Z,20.60
2023-05-23T20:42:02.409Z,20.60
2023-05-23T20:44:32.016Z,20.50
2023-05-23T20:47:00.887Z,20.40
2023-05-23T20:49:29.360Z,20.40
2023-05-23T20:51:58.013Z,20.40
2023-05-23T20:54:28.322Z,20.30
2023-05-23T20:56:56.755Z,20.30
2023-05-23T20:59:26.339Z,20.20
2023-05-23T21:01:54.834Z,20.20
2023-05-23T21:04:23.320Z,20.10
2023-05-23T21:06:51.885Z,20.10
2023-05-23T21:09:20.364Z,20.10
2023-05-23T21:11:50.291Z,20.10
2023-05-23T21:14:18.842Z,20.10
2023-05-23T21:16:47.386Z,20.00
2023-05-23T21:19:15.986Z,19.90
2023-05-23T21:21:44.789Z,19.90
2023-05-23T21:24:14.274Z,19.90
2023-05-23T21:26:42.700Z,19.90
2023-05-23T21:29:12.654Z,19.90
2023-05-23T21:31:42.128Z,19.90
2023-05-23T21:34:23.201Z,20.00
2023-05-23T21:36:52.482Z,19.90
2023-05-23T21:39:21.017Z,19.90
2023-05-23T21:41:49.461Z,19.90
2023-05-23T21:44:20.288Z,19.90
2023-05-23T21:46:48.884Z,19.90
2023-05-23T21:49:17.621Z,19.90
2023-05-23T21:51:46.152Z,19.80
2023-05-23T21:54:14.626Z,19.70
2023-05-23T21:56:43.264Z,19.60
2023-05-23T21:59:11.878Z,19.70
2023-05-23T22:01:41.856Z,19.70
2023-05-23T22:04:10.407Z,19.70
2023-05-23T22:06:38.876Z,19.70
2023-05-23T22:09:10.200Z,19.70
2023-05-23T22:11:38.746Z,19.70
2023-05-23T22:14:07.190Z,19.70
2023-05-23T22:16:39.372Z,19.70
2023-05-23T22:19:10.439Z,19.70
2023-05-23T22:21:39.195Z,19.70
2023-05-23T22:24:07.830Z,19.60
2023-05-23T22:26:36.830Z,19.60
2023-05-23T22:29:05.317Z,19.60
2023-05-23T22:31:33.961Z,19.50
2023-05-23T22:34:02.493Z,19.50
2023-05-23T22:36:33.642Z,19.50
2023-05-23T22:39:05.183Z,19.40
2023-05-23T22:41:34.573Z,19.30
2023-05-23T22:44:03.090Z,19.30
2023-05-23T22:46:31.503Z,19.20
2023-05-23T22:49:00.598Z,19.20
2023-05-23T22:51:29.412Z,19.20
2023-05-23T22:53:59.190Z,19.10
2023-05-23T22:56:27.751Z,19.10
2023-05-23T22:58:56.266Z,19.10
2023-05-23T23:01:24.932Z,19.10
2023-05-23T23:03:53.477Z,19.10
2023-05-23T23:06:22.146Z,19.10
2023-05-23T23:08:50.692Z,19.10
2023-05-23T23:11:20.904Z,19.10
2023-05-23T23:13:49.392Z,19.10
2023-05-23T23:16:19.574Z,19.00
2023-05-23T23:18:49.194Z,18.90
2023-05-23T23:21:17.785Z,18.90
2023-05-23T23:23:46.307Z,18.90
2023-05-23T23:26:14.764Z,18.80
2023-05-23T23:28:44.712Z,18.90
2023-05-23T23:31:13.248Z,18.90
2023-05-23T23:33:41.844Z,18.90
2023-05-23T23:36:10.645Z,18.90
2023-05-23T23:38:39.192Z,18.90
2023-05-23T23:41:07.763Z,18.90
2023-05-23T23:43:36.251Z,18.90
2023-05-23T23:46:06.188Z,18.90
2023-05-23T23:48:34.833Z,18.90
2023-05-23T23:51:03.298Z,18.90
2023-05-23T23:53:31.861Z,18.90
2023-05-23T23:56:00.485Z,18.90
2023-05-23T23:58:28.928Z,18.90
